RYR8PA EINN-LFBL
Flight info
| Callsign | RYR8PA |
|---|---|
| Flight time | 1h 33m |
| Altitude | 33000 |
| Route | LUNIG3A LUNIG DCT UPCAB DCT LIZAD DCT KORER UM616 NTS UP860 LEMKA DCT BALAN |
| Aircraft | B7M8/M-SADE2E3GIJ4J7RWZ/LB1D1 |
Departure
| Time | 2026-04-24 08:08 |
|---|---|
| Airport | Shannon Airport (EINN) |
Arrival
| Time | 2026-04-24 09:41 |
|---|---|
| Airport | Limoges Airport (LFBL) |
| Time | Latitude | Longitude | Altitude | Speed | Heading |
|---|---|---|---|---|---|
| 2026-04-24 07:23 | 52.69274 | -8.91793 | 15 ft | 0 kts | 221° |
| 2026-04-24 07:56 | 52.69279 | -8.91786 | 15 ft | 2 kts | 223° |
| 2026-04-24 07:56 | 52.69289 | -8.91766 | 14 ft | 2 kts | 242° |
| 2026-04-24 07:56 | 52.69294 | -8.91743 | 14 ft | 2 kts | 256° |
| 2026-04-24 07:56 | 52.69296 | -8.91719 | 14 ft | 2 kts | 271° |
| 2026-04-24 07:57 | 52.69294 | -8.91695 | 13 ft | 2 kts | 285° |
| 2026-04-24 07:57 | 52.69289 | -8.91672 | 13 ft | 2 kts | 300° |
| 2026-04-24 07:57 | 52.69284 | -8.91659 | 12 ft | 0 kts | 309° |
| 2026-04-24 07:57 | 52.69280 | -8.91652 | 12 ft | 0 kts | 310° |
| 2026-04-24 08:00 | 52.69283 | -8.91658 | 12 ft | 2 kts | 310° |
| 2026-04-24 08:00 | 52.69304 | -8.91698 | 13 ft | 6 kts | 310° |
| 2026-04-24 08:00 | 52.69349 | -8.91744 | 14 ft | 9 kts | 343° |
| 2026-04-24 08:00 | 52.69421 | -8.91812 | 14 ft | 13 kts | 301° |
| 2026-04-24 08:01 | 52.69450 | -8.91951 | 16 ft | 12 kts | 285° |
| 2026-04-24 08:01 | 52.69472 | -8.92102 | 16 ft | 14 kts | 286° |
| 2026-04-24 08:01 | 52.69508 | -8.92263 | 16 ft | 15 kts | 297° |
| 2026-04-24 08:01 | 52.69573 | -8.92413 | 16 ft | 16 kts | 313° |
| 2026-04-24 08:02 | 52.69658 | -8.92550 | 16 ft | 18 kts | 316° |
| 2026-04-24 08:02 | 52.69752 | -8.92703 | 16 ft | 18 kts | 313° |
| 2026-04-24 08:02 | 52.69831 | -8.92834 | 16 ft | 8 kts | 317° |
| 2026-04-24 08:02 | 52.69859 | -8.92876 | 16 ft | 3 kts | 316° |
| 2026-04-24 08:03 | 52.69861 | -8.92879 | 16 ft | 0 kts | 316° |
| 2026-04-24 08:04 | 52.69864 | -8.92883 | 16 ft | 2 kts | 316° |
| 2026-04-24 08:04 | 52.69889 | -8.92922 | 16 ft | 8 kts | 316° |
| 2026-04-24 08:04 | 52.69931 | -8.93020 | 17 ft | 11 kts | 278° |
| 2026-04-24 08:04 | 52.69884 | -8.93150 | 19 ft | 15 kts | 232° |
| 2026-04-24 08:05 | 52.69810 | -8.93301 | 22 ft | 18 kts | 231° |
| 2026-04-24 08:05 | 52.69725 | -8.93469 | 26 ft | 20 kts | 229° |
| 2026-04-24 08:05 | 52.69620 | -8.93658 | 29 ft | 24 kts | 225° |
| 2026-04-24 08:05 | 52.69530 | -8.93871 | 33 ft | 20 kts | 247° |
| 2026-04-24 08:06 | 52.69455 | -8.94061 | 37 ft | 20 kts | 232° |
| 2026-04-24 08:06 | 52.69379 | -8.94226 | 40 ft | 13 kts | 232° |
| 2026-04-24 08:06 | 52.69332 | -8.94252 | 40 ft | 7 kts | 184° |
| 2026-04-24 08:06 | 52.69299 | -8.94289 | 41 ft | 5 kts | 276° |
| 2026-04-24 08:07 | 52.69329 | -8.94311 | 42 ft | 6 kts | 19° |
| 2026-04-24 08:07 | 52.69365 | -8.94249 | 40 ft | 8 kts | 53° |
| 2026-04-24 08:07 | 52.69440 | -8.94091 | 37 ft | 44 kts | 52° |
| 2026-04-24 08:07 | 52.69785 | -8.93358 | 24 ft | 115 kts | 52° |
| 2026-04-24 08:08 | 52.70400 | -8.92051 | 76 ft | 164 kts | 52° |
| 2026-04-24 08:08 | 52.71098 | -8.90558 | 643 ft | 168 kts | 52° |
| 2026-04-24 08:08 | 52.71828 | -8.89005 | 1192 ft | 177 kts | 51° |
| 2026-04-24 08:09 | 52.72510 | -8.85176 | 2083 ft | 199 kts | 107° |
| 2026-04-24 08:09 | 52.71738 | -8.83294 | 2518 ft | 210 kts | 135° |
| 2026-04-24 08:09 | 52.70672 | -8.81525 | 2868 ft | 227 kts | 128° |
| 2026-04-24 08:09 | 52.69763 | -8.79251 | 3297 ft | 242 kts | 116° |
| 2026-04-24 08:10 | 52.69047 | -8.76842 | 4190 ft | 235 kts | 113° |
| 2026-04-24 08:10 | 52.68263 | -8.74437 | 4620 ft | 251 kts | 123° |
| 2026-04-24 08:10 | 52.67095 | -8.72116 | 4915 ft | 272 kts | 134° |
| 2026-04-24 08:10 | 52.66200 | -8.70624 | 5291 ft | 278 kts | 135° |
| 2026-04-24 08:11 | 52.65055 | -8.68748 | 5788 ft | 283 kts | 135° |
| 2026-04-24 08:11 | 52.63643 | -8.66442 | 6459 ft | 287 kts | 136° |
| 2026-04-24 08:11 | 52.62221 | -8.64118 | 7119 ft | 291 kts | 136° |
| 2026-04-24 08:11 | 52.60805 | -8.61803 | 7771 ft | 294 kts | 137° |
| 2026-04-24 08:12 | 52.59341 | -8.59409 | 8433 ft | 297 kts | 137° |
| 2026-04-24 08:12 | 52.57893 | -8.57044 | 9083 ft | 299 kts | 138° |
| 2026-04-24 08:12 | 52.56422 | -8.54642 | 9733 ft | 301 kts | 139° |
| 2026-04-24 08:12 | 52.54942 | -8.52228 | 10391 ft | 302 kts | 139° |
| 2026-04-24 08:13 | 52.53455 | -8.49805 | 11041 ft | 303 kts | 140° |
| 2026-04-24 08:13 | 52.51965 | -8.47378 | 11692 ft | 303 kts | 140° |
| 2026-04-24 08:13 | 52.50466 | -8.44940 | 12315 ft | 304 kts | 141° |
| 2026-04-24 08:13 | 52.48960 | -8.42496 | 12846 ft | 308 kts | 141° |
| 2026-04-24 08:14 | 52.47433 | -8.40019 | 13405 ft | 310 kts | 141° |
| 2026-04-24 08:14 | 52.45917 | -8.37561 | 13929 ft | 313 kts | 142° |
| 2026-04-24 08:14 | 52.44364 | -8.35046 | 14456 ft | 316 kts | 142° |
| 2026-04-24 08:14 | 52.42786 | -8.32492 | 14981 ft | 318 kts | 143° |
| 2026-04-24 08:15 | 52.41210 | -8.29944 | 15476 ft | 321 kts | 143° |
| 2026-04-24 08:15 | 52.39617 | -8.27420 | 15871 ft | 325 kts | 147° |
| 2026-04-24 08:15 | 52.37865 | -8.24983 | 15933 ft | 340 kts | 149° |
| 2026-04-24 08:15 | 52.35994 | -8.22476 | 15989 ft | 356 kts | 148° |
| 2026-04-24 08:16 | 52.34056 | -8.19866 | 16276 ft | 364 kts | 148° |
| 2026-04-24 08:16 | 52.32080 | -8.17186 | 16656 ft | 369 kts | 148° |
| 2026-04-24 08:16 | 52.30125 | -8.14529 | 17123 ft | 371 kts | 148° |
| 2026-04-24 08:16 | 52.28135 | -8.11826 | 17530 ft | 374 kts | 148° |
| 2026-04-24 08:17 | 52.26131 | -8.09108 | 17963 ft | 376 kts | 149° |
| 2026-04-24 08:17 | 52.24128 | -8.06395 | 18361 ft | 379 kts | 149° |
| 2026-04-24 08:17 | 52.22079 | -8.03622 | 18766 ft | 381 kts | 149° |
| 2026-04-24 08:17 | 52.20037 | -8.00863 | 19148 ft | 384 kts | 149° |
| 2026-04-24 08:18 | 52.17987 | -7.98095 | 19531 ft | 386 kts | 149° |
| 2026-04-24 08:18 | 52.15926 | -7.95312 | 19899 ft | 389 kts | 149° |
| 2026-04-24 08:18 | 52.13853 | -7.92517 | 20254 ft | 391 kts | 150° |
| 2026-04-24 08:18 | 52.11755 | -7.89691 | 20636 ft | 393 kts | 150° |
| 2026-04-24 08:19 | 52.09629 | -7.86831 | 20967 ft | 396 kts | 150° |
| 2026-04-24 08:19 | 52.07506 | -7.83981 | 21319 ft | 397 kts | 150° |
| 2026-04-24 08:19 | 52.05404 | -7.81161 | 21666 ft | 399 kts | 150° |
| 2026-04-24 08:19 | 52.03242 | -7.78266 | 21985 ft | 402 kts | 150° |
| 2026-04-24 08:20 | 52.01107 | -7.75409 | 22322 ft | 403 kts | 150° |
| 2026-04-24 08:20 | 51.98919 | -7.72487 | 22641 ft | 405 kts | 151° |
| 2026-04-24 08:20 | 51.96741 | -7.69580 | 22931 ft | 408 kts | 151° |
| 2026-04-24 08:20 | 51.94568 | -7.66703 | 23251 ft | 407 kts | 138° |
| 2026-04-24 08:21 | 51.92258 | -7.64061 | 23616 ft | 407 kts | 147° |
| 2026-04-24 08:21 | 51.89905 | -7.61503 | 23978 ft | 407 kts | 144° |
| 2026-04-24 08:21 | 51.87655 | -7.58716 | 24259 ft | 409 kts | 140° |
| 2026-04-24 08:21 | 51.85504 | -7.55752 | 24549 ft | 410 kts | 138° |
| 2026-04-24 08:22 | 51.83394 | -7.52704 | 24816 ft | 412 kts | 137° |
| 2026-04-24 08:22 | 51.81253 | -7.49622 | 25084 ft | 414 kts | 138° |
| 2026-04-24 08:22 | 51.79077 | -7.46563 | 25348 ft | 415 kts | 139° |
| 2026-04-24 08:22 | 51.76870 | -7.43525 | 25605 ft | 417 kts | 139° |
| 2026-04-24 08:23 | 51.74660 | -7.40526 | 25854 ft | 419 kts | 140° |
| 2026-04-24 08:23 | 51.72413 | -7.37505 | 26103 ft | 420 kts | 140° |
| 2026-04-24 08:23 | 51.70154 | -7.34492 | 26346 ft | 422 kts | 141° |
| 2026-04-24 08:23 | 51.67887 | -7.31486 | 26581 ft | 424 kts | 141° |
| 2026-04-24 08:24 | 51.65617 | -7.28489 | 26816 ft | 425 kts | 141° |
| 2026-04-24 08:24 | 51.63350 | -7.25506 | 27037 ft | 427 kts | 141° |
| 2026-04-24 08:24 | 51.61035 | -7.22469 | 27266 ft | 428 kts | 141° |
| 2026-04-24 08:24 | 51.58740 | -7.19466 | 27481 ft | 429 kts | 141° |
| 2026-04-24 08:25 | 51.56431 | -7.16451 | 27696 ft | 431 kts | 141° |
| 2026-04-24 08:25 | 51.54098 | -7.13410 | 27910 ft | 432 kts | 141° |
| 2026-04-24 08:25 | 51.51772 | -7.10383 | 28112 ft | 434 kts | 141° |
| 2026-04-24 08:25 | 51.49417 | -7.07323 | 28320 ft | 435 kts | 141° |
| 2026-04-24 08:26 | 51.47072 | -7.04281 | 28514 ft | 436 kts | 141° |
| 2026-04-24 08:26 | 51.44722 | -7.01236 | 28711 ft | 438 kts | 141° |
| 2026-04-24 08:26 | 51.42361 | -6.98182 | 28900 ft | 439 kts | 141° |
| 2026-04-24 08:26 | 51.39983 | -6.95110 | 29088 ft | 440 kts | 141° |
| 2026-04-24 08:27 | 51.37595 | -6.92031 | 29274 ft | 442 kts | 141° |
| 2026-04-24 08:27 | 51.35201 | -6.88946 | 29451 ft | 443 kts | 141° |
| 2026-04-24 08:27 | 51.32804 | -6.85863 | 29631 ft | 444 kts | 141° |
| 2026-04-24 08:27 | 51.30413 | -6.82791 | 29799 ft | 445 kts | 141° |
| 2026-04-24 08:28 | 51.27992 | -6.79686 | 29972 ft | 446 kts | 141° |
| 2026-04-24 08:28 | 51.25599 | -6.76620 | 30134 ft | 448 kts | 141° |
| 2026-04-24 08:28 | 51.23149 | -6.73486 | 30299 ft | 449 kts | 141° |
| 2026-04-24 08:28 | 51.20735 | -6.70402 | 30458 ft | 450 kts | 141° |
| 2026-04-24 08:29 | 51.18298 | -6.67294 | 30625 ft | 451 kts | 141° |
| 2026-04-24 08:29 | 51.15850 | -6.64175 | 30832 ft | 450 kts | 141° |
| 2026-04-24 08:29 | 51.13414 | -6.61076 | 31037 ft | 450 kts | 141° |
| 2026-04-24 08:29 | 51.10968 | -6.57970 | 31245 ft | 450 kts | 141° |
| 2026-04-24 08:30 | 51.08555 | -6.54910 | 31452 ft | 449 kts | 141° |
| 2026-04-24 08:30 | 51.06109 | -6.51814 | 31656 ft | 449 kts | 141° |
| 2026-04-24 08:30 | 51.03671 | -6.48732 | 31858 ft | 448 kts | 141° |
| 2026-04-24 08:30 | 51.01245 | -6.45669 | 32054 ft | 448 kts | 141° |
| 2026-04-24 08:31 | 50.98799 | -6.42587 | 32249 ft | 448 kts | 141° |
| 2026-04-24 08:31 | 50.96389 | -6.39553 | 32439 ft | 447 kts | 141° |
| 2026-04-24 08:31 | 50.93946 | -6.36483 | 32628 ft | 447 kts | 141° |
| 2026-04-24 08:31 | 50.91489 | -6.33453 | 32806 ft | 447 kts | 146° |
| 2026-04-24 08:32 | 50.88996 | -6.30601 | 32968 ft | 446 kts | 139° |
| 2026-04-24 08:32 | 50.86750 | -6.27232 | 33165 ft | 445 kts | 135° |
| 2026-04-24 08:32 | 50.84583 | -6.23789 | 33331 ft | 445 kts | 135° |
| 2026-04-24 08:32 | 50.82396 | -6.20300 | 33493 ft | 445 kts | 135° |
| 2026-04-24 08:33 | 50.80209 | -6.16821 | 33663 ft | 445 kts | 135° |
| 2026-04-24 08:33 | 50.78064 | -6.13418 | 33828 ft | 444 kts | 135° |
| 2026-04-24 08:33 | 50.75885 | -6.09970 | 33993 ft | 444 kts | 135° |
| 2026-04-24 08:33 | 50.73691 | -6.06505 | 34154 ft | 444 kts | 135° |
| 2026-04-24 08:34 | 50.71515 | -6.03076 | 34313 ft | 443 kts | 135° |
| 2026-04-24 08:34 | 50.69344 | -5.99662 | 34470 ft | 443 kts | 135° |
| 2026-04-24 08:34 | 50.67165 | -5.96242 | 34623 ft | 443 kts | 135° |
| 2026-04-24 08:34 | 50.64980 | -5.92818 | 34773 ft | 442 kts | 135° |
| 2026-04-24 08:35 | 50.62822 | -5.89442 | 34921 ft | 442 kts | 135° |
| 2026-04-24 08:35 | 50.60626 | -5.86012 | 35068 ft | 442 kts | 135° |
| 2026-04-24 08:35 | 50.58460 | -5.82633 | 35208 ft | 442 kts | 135° |
| 2026-04-24 08:35 | 50.56297 | -5.79265 | 35349 ft | 441 kts | 135° |
| 2026-04-24 08:36 | 50.54116 | -5.75873 | 35484 ft | 441 kts | 135° |
| 2026-04-24 08:36 | 50.51962 | -5.72530 | 35613 ft | 441 kts | 135° |
| 2026-04-24 08:36 | 50.49777 | -5.69141 | 35746 ft | 440 kts | 135° |
| 2026-04-24 08:36 | 50.47593 | -5.65759 | 35877 ft | 440 kts | 135° |
| 2026-04-24 08:37 | 50.45418 | -5.62396 | 36006 ft | 440 kts | 135° |
| 2026-04-24 08:37 | 50.43261 | -5.59065 | 36136 ft | 440 kts | 135° |
| 2026-04-24 08:37 | 50.41080 | -5.55701 | 36273 ft | 440 kts | 135° |
| 2026-04-24 08:37 | 50.38894 | -5.52336 | 36405 ft | 440 kts | 135° |
| 2026-04-24 08:38 | 50.36740 | -5.49023 | 36533 ft | 440 kts | 135° |
| 2026-04-24 08:38 | 50.34551 | -5.45662 | 36657 ft | 440 kts | 135° |
| 2026-04-24 08:38 | 50.32372 | -5.42320 | 36779 ft | 440 kts | 135° |
| 2026-04-24 08:38 | 50.30202 | -5.38997 | 36897 ft | 440 kts | 135° |
| 2026-04-24 08:39 | 50.28011 | -5.35645 | 37003 ft | 440 kts | 135° |
| 2026-04-24 08:39 | 50.23639 | -5.28972 | 36999 ft | 441 kts | 136° |
| 2026-04-24 08:40 | 50.19287 | -5.22347 | 37000 ft | 439 kts | 136° |
| 2026-04-24 08:40 | 50.14936 | -5.15743 | 37000 ft | 438 kts | 136° |
| 2026-04-24 08:41 | 50.10574 | -5.09139 | 37000 ft | 439 kts | 136° |
| 2026-04-24 08:41 | 50.06202 | -5.02539 | 36999 ft | 439 kts | 136° |
| 2026-04-24 08:42 | 50.01826 | -4.95948 | 37000 ft | 439 kts | 136° |
| 2026-04-24 08:42 | 49.97434 | -4.89353 | 37000 ft | 439 kts | 136° |
| 2026-04-24 08:43 | 49.93061 | -4.82803 | 37000 ft | 439 kts | 136° |
| 2026-04-24 08:43 | 49.88688 | -4.76271 | 36999 ft | 439 kts | 136° |
| 2026-04-24 08:44 | 49.84283 | -4.69706 | 36999 ft | 439 kts | 136° |
| 2026-04-24 08:44 | 49.79910 | -4.63208 | 36999 ft | 439 kts | 136° |
| 2026-04-24 08:45 | 49.75505 | -4.56682 | 36999 ft | 439 kts | 136° |
| 2026-04-24 08:45 | 49.71115 | -4.50192 | 36999 ft | 439 kts | 136° |
| 2026-04-24 08:46 | 49.66695 | -4.43677 | 36999 ft | 439 kts | 136° |
| 2026-04-24 08:46 | 49.62293 | -4.37219 | 36999 ft | 439 kts | 138° |
| 2026-04-24 08:47 | 49.57364 | -4.31803 | 37003 ft | 439 kts | 146° |
| 2026-04-24 08:47 | 49.52309 | -4.26508 | 36999 ft | 439 kts | 146° |
| 2026-04-24 08:48 | 49.47257 | -4.21331 | 36999 ft | 439 kts | 147° |
| 2026-04-24 08:48 | 49.42161 | -4.16176 | 36999 ft | 439 kts | 147° |
| 2026-04-24 08:49 | 49.37088 | -4.11082 | 36999 ft | 439 kts | 147° |
| 2026-04-24 08:49 | 49.31970 | -4.05968 | 36999 ft | 439 kts | 147° |
| 2026-04-24 08:50 | 49.26889 | -4.00913 | 37000 ft | 439 kts | 147° |
| 2026-04-24 08:50 | 49.21764 | -3.95832 | 36999 ft | 439 kts | 147° |
| 2026-04-24 08:51 | 49.16666 | -3.90792 | 37000 ft | 439 kts | 147° |
| 2026-04-24 08:51 | 49.11561 | -3.85759 | 36999 ft | 439 kts | 147° |
| 2026-04-24 08:52 | 49.06450 | -3.80733 | 37000 ft | 439 kts | 147° |
| 2026-04-24 08:52 | 49.01312 | -3.75694 | 37000 ft | 439 kts | 147° |
| 2026-04-24 08:53 | 48.96198 | -3.70691 | 37000 ft | 439 kts | 147° |
| 2026-04-24 08:53 | 48.91087 | -3.65704 | 37000 ft | 439 kts | 147° |
| 2026-04-24 08:54 | 48.85959 | -3.60711 | 36999 ft | 439 kts | 147° |
| 2026-04-24 08:54 | 48.80817 | -3.55718 | 36999 ft | 439 kts | 147° |
| 2026-04-24 08:55 | 48.75682 | -3.50745 | 36999 ft | 439 kts | 147° |
| 2026-04-24 08:55 | 48.70553 | -3.45789 | 36999 ft | 439 kts | 147° |
| 2026-04-24 08:56 | 48.65419 | -3.40840 | 36999 ft | 439 kts | 147° |
| 2026-04-24 08:56 | 48.60309 | -3.35927 | 36999 ft | 439 kts | 147° |
| 2026-04-24 08:57 | 48.55190 | -3.31018 | 37000 ft | 439 kts | 148° |
| 2026-04-24 08:57 | 48.50027 | -3.26077 | 36999 ft | 439 kts | 148° |
| 2026-04-24 08:58 | 48.44901 | -3.21185 | 37000 ft | 439 kts | 148° |
| 2026-04-24 08:58 | 48.39752 | -3.16283 | 37000 ft | 439 kts | 148° |
| 2026-04-24 08:59 | 48.34625 | -3.11412 | 37000 ft | 439 kts | 148° |
| 2026-04-24 08:59 | 48.29457 | -3.06516 | 37000 ft | 439 kts | 148° |
| 2026-04-24 09:00 | 48.24297 | -3.01639 | 37000 ft | 439 kts | 148° |
| 2026-04-24 09:00 | 48.19181 | -2.96815 | 37000 ft | 439 kts | 148° |
| 2026-04-24 09:01 | 48.14013 | -2.91954 | 37000 ft | 439 kts | 148° |
| 2026-04-24 09:01 | 48.08855 | -2.87113 | 37000 ft | 439 kts | 148° |
| 2026-04-24 09:02 | 48.03707 | -2.82294 | 37000 ft | 439 kts | 148° |
| 2026-04-24 09:02 | 47.98533 | -2.77462 | 37000 ft | 439 kts | 148° |
| 2026-04-24 09:03 | 47.93363 | -2.72645 | 37000 ft | 439 kts | 148° |
| 2026-04-24 09:03 | 47.88209 | -2.67856 | 36999 ft | 439 kts | 148° |
| 2026-04-24 09:04 | 47.83047 | -2.63069 | 36999 ft | 439 kts | 148° |
| 2026-04-24 09:04 | 47.77892 | -2.58301 | 36999 ft | 439 kts | 148° |
| 2026-04-24 09:05 | 47.72658 | -2.53646 | 36997 ft | 439 kts | 146° |
| 2026-04-24 09:05 | 47.67957 | -2.47971 | 37001 ft | 439 kts | 136° |
| 2026-04-24 09:06 | 47.63669 | -2.41571 | 36999 ft | 439 kts | 131° |
| 2026-04-24 09:06 | 47.59642 | -2.34796 | 36999 ft | 439 kts | 131° |
| 2026-04-24 09:07 | 47.55647 | -2.27990 | 36999 ft | 439 kts | 131° |
| 2026-04-24 09:07 | 47.49657 | -2.17787 | 37000 ft | 439 kts | 131° |
| 2026-04-24 09:08 | 47.45662 | -2.10992 | 37000 ft | 439 kts | 131° |
| 2026-04-24 09:08 | 47.41673 | -2.04223 | 37000 ft | 439 kts | 131° |
| 2026-04-24 09:09 | 47.37655 | -1.97417 | 37000 ft | 439 kts | 131° |
| 2026-04-24 09:09 | 47.33670 | -1.90691 | 36999 ft | 439 kts | 131° |
| 2026-04-24 09:10 | 47.29649 | -1.83960 | 37000 ft | 439 kts | 131° |
| 2026-04-24 09:10 | 47.25623 | -1.77212 | 37000 ft | 439 kts | 131° |
| 2026-04-24 09:11 | 47.21602 | -1.70466 | 37000 ft | 439 kts | 131° |
| 2026-04-24 09:11 | 47.17724 | -1.63611 | 36999 ft | 439 kts | 126° |
| 2026-04-24 09:12 | 47.14301 | -1.56178 | 36999 ft | 439 kts | 121° |
| 2026-04-24 09:12 | 47.11276 | -1.48470 | 37000 ft | 439 kts | 119° |
| 2026-04-24 09:13 | 47.08267 | -1.40655 | 37000 ft | 439 kts | 119° |
| 2026-04-24 09:13 | 47.05270 | -1.32893 | 36999 ft | 439 kts | 120° |
| 2026-04-24 09:14 | 47.02268 | -1.25105 | 36999 ft | 439 kts | 120° |
| 2026-04-24 09:14 | 46.99280 | -1.17356 | 36999 ft | 439 kts | 120° |
| 2026-04-24 09:15 | 46.96289 | -1.09615 | 36999 ft | 439 kts | 120° |
| 2026-04-24 09:15 | 46.93278 | -1.01840 | 36999 ft | 439 kts | 120° |
| 2026-04-24 09:16 | 46.90792 | -0.95465 | 36992 ft | 439 kts | 124° |
| 2026-04-24 09:16 | 46.89416 | -0.91476 | 37134 ft | 442 kts | 120° |
| 2026-04-24 09:16 | 46.88147 | -0.87375 | 37136 ft | 446 kts | 119° |
| 2026-04-24 09:17 | 46.85398 | -0.79215 | 37131 ft | 451 kts | 124° |
| 2026-04-24 09:17 | 46.82192 | -0.71297 | 37130 ft | 455 kts | 128° |
| 2026-04-24 09:18 | 46.78747 | -0.63491 | 37139 ft | 462 kts | 128° |
| 2026-04-24 09:18 | 46.75352 | -0.55455 | 37149 ft | 470 kts | 126° |
| 2026-04-24 09:19 | 46.71998 | -0.47252 | 37155 ft | 478 kts | 125° |
| 2026-04-24 09:19 | 46.68612 | -0.38876 | 37155 ft | 484 kts | 125° |
| 2026-04-24 09:20 | 46.65245 | -0.30403 | 37151 ft | 485 kts | 122° |
| 2026-04-24 09:20 | 46.62887 | -0.21201 | 37156 ft | 492 kts | 106° |
| 2026-04-24 09:21 | 46.61789 | -0.11303 | 37148 ft | 496 kts | 99° |
| 2026-04-24 09:21 | 46.61370 | -0.06355 | 36778 ft | 493 kts | 99° |
| 2026-04-24 09:21 | 46.60959 | -0.01447 | 35940 ft | 496 kts | 99° |
| 2026-04-24 09:22 | 46.60543 | 0.03505 | 35123 ft | 498 kts | 99° |
| 2026-04-24 09:22 | 46.60123 | 0.08493 | 34360 ft | 498 kts | 99° |
| 2026-04-24 09:22 | 46.59700 | 0.13504 | 33574 ft | 499 kts | 99° |
| 2026-04-24 09:22 | 46.59282 | 0.18435 | 32793 ft | 499 kts | 99° |
| 2026-04-24 09:23 | 46.58855 | 0.23457 | 31978 ft | 499 kts | 99° |
| 2026-04-24 09:23 | 46.58430 | 0.28434 | 31277 ft | 496 kts | 99° |
| 2026-04-24 09:23 | 46.58011 | 0.33324 | 30723 ft | 490 kts | 99° |
| 2026-04-24 09:23 | 46.57587 | 0.38243 | 30103 ft | 486 kts | 99° |
| 2026-04-24 09:24 | 46.57170 | 0.43053 | 29489 ft | 482 kts | 99° |
| 2026-04-24 09:24 | 46.56754 | 0.47829 | 28769 ft | 480 kts | 99° |
| 2026-04-24 09:24 | 46.56334 | 0.52630 | 28103 ft | 477 kts | 98° |
| 2026-04-24 09:24 | 46.55915 | 0.57392 | 27482 ft | 473 kts | 98° |
| 2026-04-24 09:25 | 46.55502 | 0.62068 | 26873 ft | 469 kts | 98° |
| 2026-04-24 09:25 | 46.55088 | 0.66729 | 26264 ft | 464 kts | 99° |
| 2026-04-24 09:25 | 46.54676 | 0.71387 | 25655 ft | 460 kts | 99° |
| 2026-04-24 09:25 | 46.54271 | 0.75946 | 25048 ft | 453 kts | 99° |
| 2026-04-24 09:26 | 46.53872 | 0.80415 | 24471 ft | 441 kts | 99° |
| 2026-04-24 09:26 | 46.53480 | 0.84738 | 23908 ft | 437 kts | 99° |
| 2026-04-24 09:26 | 46.52965 | 0.89073 | 23237 ft | 434 kts | 108° |
| 2026-04-24 09:26 | 46.51857 | 0.93075 | 22521 ft | 428 kts | 123° |
| 2026-04-24 09:27 | 46.50140 | 0.96542 | 21875 ft | 417 kts | 139° |
| 2026-04-24 09:27 | 46.47982 | 0.99179 | 21331 ft | 402 kts | 154° |
| 2026-04-24 09:27 | 46.45522 | 1.00918 | 20659 ft | 390 kts | 168° |
| 2026-04-24 09:27 | 46.42947 | 1.01862 | 20007 ft | 381 kts | 177° |
| 2026-04-24 09:28 | 46.40353 | 1.02374 | 19340 ft | 376 kts | 181° |
| 2026-04-24 09:28 | 46.37742 | 1.02678 | 18725 ft | 372 kts | 182° |
| 2026-04-24 09:28 | 46.35212 | 1.02896 | 18261 ft | 364 kts | 184° |
| 2026-04-24 09:28 | 46.32702 | 1.03007 | 17761 ft | 358 kts | 186° |
| 2026-04-24 09:29 | 46.30256 | 1.03044 | 17273 ft | 353 kts | 186° |
| 2026-04-24 09:29 | 46.27833 | 1.03047 | 16787 ft | 348 kts | 187° |
| 2026-04-24 09:29 | 46.25406 | 1.03035 | 16297 ft | 344 kts | 187° |
| 2026-04-24 09:29 | 46.23042 | 1.03016 | 15820 ft | 340 kts | 187° |
| 2026-04-24 09:30 | 46.20706 | 1.02993 | 15347 ft | 336 kts | 187° |
| 2026-04-24 09:30 | 46.18376 | 1.02968 | 14875 ft | 333 kts | 187° |
| 2026-04-24 09:30 | 46.16086 | 1.02943 | 14410 ft | 330 kts | 187° |
| 2026-04-24 09:30 | 46.13811 | 1.02918 | 13948 ft | 326 kts | 187° |
| 2026-04-24 09:31 | 46.11563 | 1.02893 | 13489 ft | 323 kts | 187° |
| 2026-04-24 09:31 | 46.09334 | 1.02868 | 13036 ft | 321 kts | 187° |
| 2026-04-24 09:31 | 46.07112 | 1.02843 | 12582 ft | 318 kts | 187° |
| 2026-04-24 09:31 | 46.04937 | 1.02819 | 12137 ft | 315 kts | 187° |
| 2026-04-24 09:32 | 46.02745 | 1.02795 | 11689 ft | 312 kts | 187° |
| 2026-04-24 09:32 | 46.00610 | 1.02771 | 11254 ft | 309 kts | 186° |
| 2026-04-24 09:32 | 45.98473 | 1.02747 | 10815 ft | 306 kts | 186° |
| 2026-04-24 09:32 | 45.96361 | 1.02638 | 10399 ft | 298 kts | 192° |
| 2026-04-24 09:33 | 45.94398 | 1.02099 | 10241 ft | 282 kts | 199° |
| 2026-04-24 09:33 | 45.92584 | 1.01327 | 10160 ft | 266 kts | 202° |
| 2026-04-24 09:33 | 45.90867 | 1.00503 | 10077 ft | 253 kts | 203° |
| 2026-04-24 09:33 | 45.89220 | 0.99687 | 9697 ft | 254 kts | 203° |
| 2026-04-24 09:34 | 45.87558 | 0.98866 | 9350 ft | 252 kts | 202° |
| 2026-04-24 09:34 | 45.85898 | 0.98056 | 9015 ft | 250 kts | 201° |
| 2026-04-24 09:34 | 45.84266 | 0.97275 | 8691 ft | 248 kts | 200° |
| 2026-04-24 09:34 | 45.82650 | 0.96505 | 8375 ft | 245 kts | 200° |
| 2026-04-24 09:35 | 45.81053 | 0.95732 | 8061 ft | 243 kts | 199° |
| 2026-04-24 09:35 | 45.79449 | 0.94969 | 7744 ft | 241 kts | 199° |
| 2026-04-24 09:35 | 45.77863 | 0.94212 | 7434 ft | 239 kts | 199° |
| 2026-04-24 09:35 | 45.76295 | 0.93451 | 7125 ft | 238 kts | 198° |
| 2026-04-24 09:36 | 45.74726 | 0.92699 | 6842 ft | 241 kts | 197° |
| 2026-04-24 09:36 | 45.73106 | 0.92081 | 6534 ft | 239 kts | 186° |
| 2026-04-24 09:36 | 45.71478 | 0.92319 | 6277 ft | 237 kts | 162° |
| 2026-04-24 09:36 | 45.70107 | 0.93520 | 6070 ft | 235 kts | 137° |
| 2026-04-24 09:37 | 45.69251 | 0.95531 | 5728 ft | 241 kts | 110° |
| 2026-04-24 09:37 | 45.69086 | 0.97912 | 5484 ft | 241 kts | 90° |
| 2026-04-24 09:37 | 45.69425 | 1.00253 | 5141 ft | 242 kts | 73° |
| 2026-04-24 09:37 | 45.70216 | 1.02325 | 4937 ft | 238 kts | 55° |
| 2026-04-24 09:38 | 45.71372 | 1.04012 | 4579 ft | 242 kts | 41° |
| 2026-04-24 09:38 | 45.72784 | 1.05357 | 4067 ft | 249 kts | 33° |
| 2026-04-24 09:38 | 45.74261 | 1.06620 | 3770 ft | 243 kts | 34° |
| 2026-04-24 09:38 | 45.75652 | 1.07873 | 3619 ft | 232 kts | 36° |
| 2026-04-24 09:39 | 45.76965 | 1.09110 | 3259 ft | 225 kts | 36° |
| 2026-04-24 09:39 | 45.78223 | 1.10312 | 2930 ft | 207 kts | 37° |
| 2026-04-24 09:39 | 45.79333 | 1.11395 | 2636 ft | 180 kts | 37° |
| 2026-04-24 09:39 | 45.80295 | 1.12378 | 2289 ft | 161 kts | 43° |
| 2026-04-24 09:40 | 45.81131 | 1.13336 | 2062 ft | 148 kts | 40° |
| 2026-04-24 09:40 | 45.81954 | 1.14200 | 1961 ft | 146 kts | 37° |
| 2026-04-24 09:40 | 45.82800 | 1.14966 | 1839 ft | 145 kts | 33° |
| 2026-04-24 09:40 | 45.83678 | 1.15724 | 1694 ft | 149 kts | 36° |
| 2026-04-24 09:41 | 45.84542 | 1.16573 | 1541 ft | 153 kts | 37° |
| 2026-04-24 09:41 | 45.85428 | 1.17424 | 1343 ft | 153 kts | 35° |
| 2026-04-24 09:41 | 45.86223 | 1.18173 | 1305 ft | 108 kts | 34° |
| 2026-04-24 09:41 | 45.86644 | 1.18572 | 1304 ft | 41 kts | 33° |
| 2026-04-24 09:42 | 45.86744 | 1.18667 | 1304 ft | 0 kts | 32° |
| 2026-04-24 09:42 | 45.86802 | 1.18720 | 1304 ft | 25 kts | 33° |
| 2026-04-24 09:42 | 45.86924 | 1.18840 | 1304 ft | 17 kts | 34° |
| 2026-04-24 09:42 | 45.87021 | 1.18935 | 1304 ft | 16 kts | 34° |
| 2026-04-24 09:43 | 45.87070 | 1.19018 | 1304 ft | 9 kts | 56° |
| 2026-04-24 09:43 | 45.87109 | 1.19018 | 1304 ft | 6 kts | 285° |
| 2026-04-24 09:43 | 45.87079 | 1.18977 | 1304 ft | 7 kts | 207° |
| 2026-04-24 09:43 | 45.87024 | 1.18926 | 1304 ft | 10 kts | 213° |
| 2026-04-24 09:44 | 45.86951 | 1.18859 | 1304 ft | 12 kts | 212° |
| 2026-04-24 09:44 | 45.86872 | 1.18786 | 1304 ft | 15 kts | 214° |
| 2026-04-24 09:44 | 45.86777 | 1.18694 | 1304 ft | 17 kts | 213° |
| 2026-04-24 09:44 | 45.86664 | 1.18588 | 1304 ft | 20 kts | 213° |
| 2026-04-24 09:45 | 45.86545 | 1.18476 | 1304 ft | 19 kts | 213° |
| 2026-04-24 09:45 | 45.86438 | 1.18376 | 1304 ft | 17 kts | 213° |
| 2026-04-24 09:45 | 45.86337 | 1.18281 | 1304 ft | 17 kts | 213° |
| 2026-04-24 09:45 | 45.86234 | 1.18183 | 1304 ft | 18 kts | 213° |
| 2026-04-24 09:46 | 45.86132 | 1.18089 | 1304 ft | 16 kts | 212° |
| 2026-04-24 09:46 | 45.86093 | 1.18013 | 1304 ft | 8 kts | 275° |
| 2026-04-24 09:46 | 45.86116 | 1.17948 | 1304 ft | 6 kts | 303° |
| 2026-04-24 09:46 | 45.86142 | 1.17891 | 1304 ft | 8 kts | 300° |
| 2026-04-24 09:47 | 45.86129 | 1.17812 | 1304 ft | 10 kts | 220° |
| 2026-04-24 09:47 | 45.86108 | 1.17771 | 1304 ft | 4 kts | 279° |
| 2026-04-24 09:47 | 45.86124 | 1.17725 | 1304 ft | 6 kts | 305° |
| 2026-04-24 09:47 | 45.86129 | 1.17718 | 1304 ft | 0 kts | 329° |
| 2026-04-24 09:48 | 45.86135 | 1.17719 | 1304 ft | 1 kts | 15° |
| 2026-04-24 09:48 | 45.86144 | 1.17731 | 1304 ft | 1 kts | 64° |
| 2026-04-24 09:48 | 45.86144 | 1.17732 | 1304 ft | 0 kts | 65° |